createdAt,value
2022-09-17T00:01:33.817Z,98241.75
2022-09-17T00:04:04.721Z,98260.00
2022-09-17T00:06:36.107Z,98252.19
2022-09-17T00:09:07.172Z,98258.16
2022-09-17T00:11:40.069Z,98254.31
2022-09-17T00:14:15.854Z,98257.31
2022-09-17T00:16:47.820Z,98220.63
2022-09-17T00:19:26.110Z,98246.19
2022-09-17T00:21:55.481Z,98248.16
2022-09-17T00:24:23.344Z,98235.88
2022-09-17T00:26:52.143Z,98210.69
2022-09-17T00:29:20.016Z,98213.69
2022-09-17T00:31:47.980Z,98162.78
2022-09-17T00:34:16.309Z,98265.59
2022-09-17T00:36:44.283Z,98274.06
2022-09-17T00:39:15.827Z,98226.78
2022-09-17T00:41:45.009Z,98235.88
2022-09-17T00:44:42.779Z,98277.84
2022-09-17T00:47:22.425Z,98288.09
2022-09-17T00:50:06.338Z,98256.28
2022-09-17T00:52:59.872Z,98251.28
2022-09-17T00:55:48.837Z,98281.81
2022-09-17T00:58:21.139Z,98286.94
2022-09-17T01:00:49.399Z,98279.72
2022-09-17T01:03:17.731Z,98244.75
2022-09-17T01:06:09.507Z,98288.31
2022-09-17T01:09:08.455Z,98268.91
2022-09-17T01:11:54.656Z,98270.72
2022-09-17T01:15:02.064Z,98269.94
2022-09-17T01:17:58.946Z,98266.44
2022-09-17T01:21:03.962Z,98269.59
2022-09-17T01:24:01.010Z,98270.63
2022-09-17T01:26:47.403Z,98263.97
2022-09-17T01:29:39.709Z,98269.59
2022-09-17T01:32:38.933Z,98263.81
2022-09-17T01:35:26.458Z,98260.44
2022-09-17T01:38:18.202Z,98246.84
2022-09-17T01:41:08.917Z,98219.31
2022-09-17T01:44:10.923Z,98244.19
2022-09-17T01:46:53.377Z,98241.69
2022-09-17T01:49:25.563Z,98246.00
2022-09-17T01:51:55.375Z,98246.16
2022-09-17T01:54:31.144Z,98243.34
2022-09-17T01:57:26.237Z,98253.25
2022-09-17T02:00:07.540Z,98249.38
2022-09-17T02:03:20.480Z,98242.94
2022-09-17T02:06:01.221Z,98243.09
2022-09-17T02:09:22.806Z,98260.13
2022-09-17T02:11:55.939Z,98257.97
2022-09-17T02:14:33.601Z,98242.88
2022-09-17T02:17:20.700Z,98254.31
2022-09-17T02:19:49.560Z,98208.38
2022-09-17T02:22:43.254Z,98251.81
2022-09-17T02:25:33.916Z,98254.97
2022-09-17T02:28:32.896Z,98251.25
2022-09-17T02:31:02.149Z,98249.25
2022-09-17T02:33:33.393Z,98252.09
2022-09-17T02:36:02.476Z,98239.94
2022-09-17T02:38:32.121Z,98243.09
2022-09-17T02:41:23.636Z,98250.03
2022-09-17T02:44:29.715Z,98256.41
2022-09-17T02:47:29.045Z,98253.16
2022-09-17T02:50:30.620Z,98250.50
2022-09-17T02:53:38.452Z,98240.19
2022-09-17T02:56:38.542Z,98232.56
2022-09-17T02:59:26.898Z,98258.31
2022-09-17T03:02:13.709Z,98247.44
2022-09-17T03:04:42.586Z,98261.19
2022-09-17T03:07:13.138Z,98255.72
2022-09-17T03:09:43.729Z,98266.09
2022-09-17T03:12:12.532Z,98234.56
2022-09-17T03:14:40.330Z,98271.22
2022-09-17T03:17:08.701Z,98235.44
2022-09-17T03:19:36.655Z,98282.63
2022-09-17T03:22:04.550Z,98229.59
2022-09-17T03:24:32.590Z,98284.31
2022-09-17T03:27:00.462Z,98277.59
2022-09-17T03:29:28.216Z,98275.16
2022-09-17T03:31:56.288Z,98281.72
2022-09-17T03:34:24.481Z,98283.34
2022-09-17T03:36:52.435Z,98284.47
2022-09-17T03:39:20.512Z,98287.38
2022-09-17T03:41:48.361Z,98281.19
2022-09-17T03:44:16.326Z,98285.13
2022-09-17T03:46:44.559Z,98272.22
2022-09-17T03:49:12.417Z,98287.09
2022-09-17T03:51:40.212Z,98275.66
2022-09-17T03:54:08.560Z,98270.19
2022-09-17T03:56:36.398Z,98283.25
2022-09-17T03:59:04.331Z,98225.44
2022-09-17T04:01:32.706Z,98282.34
2022-09-17T04:04:00.795Z,98281.31
2022-09-17T04:06:28.644Z,98277.19
2022-09-17T04:08:57.101Z,98243.69
2022-09-17T04:11:24.920Z,98257.13
2022-09-17T04:13:52.850Z,98294.81
2022-09-17T04:16:20.965Z,98275.44
2022-09-17T04:18:48.864Z,98275.44
2022-09-17T04:21:17.148Z,98277.78
2022-09-17T04:23:45.372Z,98281.09
2022-09-17T04:26:13.766Z,98239.44
2022-09-17T04:28:41.628Z,98269.44
2022-09-17T04:31:09.688Z,98271.84
2022-09-17T04:33:37.767Z,98271.69
2022-09-17T04:36:05.703Z,98277.00
2022-09-17T04:38:33.833Z,98224.06
2022-09-17T04:41:01.628Z,98227.91
2022-09-17T04:43:29.753Z,98275.31
2022-09-17T04:45:59.326Z,98229.56
2022-09-17T04:48:27.157Z,98275.97
2022-09-17T04:50:55.065Z,98260.22
2022-09-17T04:53:23.174Z,98273.00
2022-09-17T04:55:51.215Z,98280.94
2022-09-17T04:58:20.195Z,98279.50
2022-09-17T05:00:49.044Z,98233.38
2022-09-17T05:03:17.413Z,98278.75
2022-09-17T05:05:45.199Z,98277.66
2022-09-17T05:08:13.321Z,98240.19
2022-09-17T05:10:41.183Z,98278.44
2022-09-17T05:13:08.976Z,98276.66
2022-09-17T05:15:37.320Z,98271.63
2022-09-17T05:18:05.212Z,98268.75
2022-09-17T05:20:33.111Z,98270.97
2022-09-17T05:23:01.246Z,98257.94
2022-09-17T05:25:29.117Z,98252.97
2022-09-17T05:27:57.205Z,98270.44
2022-09-17T05:30:26.138Z,98229.97
2022-09-17T05:33:07.119Z,98279.69
2022-09-17T05:35:36.892Z,98272.84
2022-09-17T05:38:07.830Z,98271.31
2022-09-17T05:40:37.716Z,98268.84
2022-09-17T05:43:08.079Z,98277.63
2022-09-17T05:45:37.678Z,98223.88
2022-09-17T05:48:12.587Z,98266.06
2022-09-17T05:50:41.584Z,98286.84
2022-09-17T05:53:12.992Z,98283.66
2022-09-17T05:55:41.362Z,98267.75
2022-09-17T05:58:18.825Z,98280.34
2022-09-17T06:00:49.069Z,98256.03
2022-09-17T06:03:19.832Z,98238.56
2022-09-17T06:05:56.765Z,98282.44
2022-09-17T06:08:27.560Z,98278.97
2022-09-17T06:11:00.150Z,98238.13
2022-09-17T06:13:29.784Z,98229.50
2022-09-17T06:15:58.230Z,98268.28
2022-09-17T06:18:27.150Z,98264.84
2022-09-17T06:21:00.357Z,98271.28
2022-09-17T06:23:35.350Z,98264.31
2022-09-17T06:26:05.867Z,98253.69
2022-09-17T06:28:40.553Z,98248.59
2022-09-17T06:31:12.560Z,98250.75
2022-09-17T06:33:40.771Z,98248.19
2022-09-17T06:36:14.021Z,98242.34
2022-09-17T06:38:43.059Z,98160.06
2022-09-17T06:41:11.251Z,98231.81
2022-09-17T06:43:39.301Z,98250.28
2022-09-17T06:46:09.518Z,98244.44
2022-09-17T06:48:38.685Z,98257.00
2022-09-17T06:51:10.607Z,98259.44
2022-09-17T06:53:39.756Z,98252.75
2022-09-17T06:56:09.296Z,98261.56
2022-09-17T06:58:38.337Z,98269.16
2022-09-17T07:01:06.641Z,98247.09
2022-09-17T07:03:34.836Z,98257.09
2022-09-17T07:06:03.440Z,98256.34
2022-09-17T07:08:39.384Z,98263.66
2022-09-17T07:11:08.493Z,98256.50
2022-09-17T07:13:39.201Z,98266.88
2022-09-17T07:16:08.088Z,98257.78
2022-09-17T07:18:37.133Z,98258.13
2022-09-17T07:21:06.870Z,98235.88
2022-09-17T07:23:38.376Z,98260.06
2022-09-17T07:26:14.197Z,98260.06
2022-09-17T07:28:45.999Z,98258.66
2022-09-17T07:31:16.709Z,98252.50
2022-09-17T07:33:46.111Z,98221.19
2022-09-17T07:36:19.450Z,98242.59
2022-09-17T07:38:47.723Z,98233.50
2022-09-17T07:41:17.993Z,98231.41
2022-09-17T07:43:46.394Z,98246.69
2022-09-17T07:46:20.797Z,98253.72
2022-09-17T07:48:50.753Z,98259.91
2022-09-17T07:51:22.663Z,98262.88
2022-09-17T07:53:59.006Z,98264.16
2022-09-17T07:56:28.882Z,98256.28
2022-09-17T07:58:57.382Z,98260.09
2022-09-17T08:01:27.309Z,98218.75
2022-09-17T08:03:55.683Z,98225.25
2022-09-17T08:06:27.024Z,98254.34
2022-09-17T08:08:57.284Z,98246.69
2022-09-17T08:11:45.043Z,98248.72
2022-09-17T08:14:17.359Z,98245.81
2022-09-17T08:16:47.551Z,98250.38
2022-09-17T08:19:15.876Z,98217.13
2022-09-17T08:21:43.864Z,98207.25
2022-09-17T08:24:11.753Z,98236.50
2022-09-17T08:26:40.645Z,98194.66
2022-09-17T08:29:08.844Z,98181.28
2022-09-17T08:31:37.384Z,98224.59
2022-09-17T08:34:11.359Z,98226.72
2022-09-17T08:36:39.222Z,98223.41
2022-09-17T08:39:07.313Z,98131.28
2022-09-17T08:41:52.533Z,98230.19
2022-09-17T08:44:47.560Z,98193.63
2022-09-17T08:47:51.047Z,98240.19
2022-09-17T08:50:31.670Z,98253.81
2022-09-17T08:53:14.607Z,98253.38
2022-09-17T08:55:53.874Z,98201.66
2022-09-17T08:58:49.535Z,98263.44
2022-09-17T09:02:04.525Z,98257.78
2022-09-17T09:05:04.894Z,98251.50
2022-09-17T09:07:43.383Z,98260.59
2022-09-17T09:10:50.537Z,98255.34
2022-09-17T09:13:21.692Z,98242.06
2022-09-17T09:16:02.988Z,98210.84
2022-09-17T09:18:35.933Z,98232.53
2022-09-17T09:21:23.823Z,98242.00
2022-09-17T09:24:10.412Z,98202.44
2022-09-17T09:26:48.493Z,98244.41
2022-09-17T09:29:43.378Z,98234.25
2022-09-17T09:33:00.500Z,98234.00
2022-09-17T09:35:33.121Z,98229.06
2022-09-17T09:38:31.430Z,98237.63
2022-09-17T09:41:26.732Z,98231.75
2022-09-17T09:44:10.822Z,98226.00
2022-09-17T09:46:51.022Z,98242.50
2022-09-17T09:49:55.481Z,98233.47
2022-09-17T09:52:33.022Z,98234.09
2022-09-17T09:55:31.518Z,98233.47
2022-09-17T09:58:39.694Z,98221.97
2022-09-17T10:01:21.170Z,98220.44
2022-09-17T10:03:52.714Z,98217.19
2022-09-17T10:06:20.992Z,98200.31
2022-09-17T10:08:58.364Z,98218.28
2022-09-17T10:11:33.216Z,98202.34
2022-09-17T10:14:27.179Z,98205.53
2022-09-17T10:17:27.743Z,98197.50
2022-09-17T10:20:11.171Z,98205.16
2022-09-17T10:22:42.746Z,98152.84
2022-09-17T10:25:34.217Z,98193.84
2022-09-17T10:28:06.011Z,98193.22
2022-09-17T10:30:35.855Z,98154.22
2022-09-17T10:33:23.036Z,98184.16
2022-09-17T10:36:15.043Z,98197.72
2022-09-17T10:38:47.380Z,98205.56
2022-09-17T10:41:23.431Z,98206.94
2022-09-17T10:43:52.026Z,98189.41
2022-09-17T10:46:30.761Z,98207.19
2022-09-17T10:49:18.165Z,98211.25
2022-09-17T10:51:46.445Z,98180.53
2022-09-17T10:54:58.422Z,98214.22
2022-09-17T10:57:56.984Z,98111.31
2022-09-17T11:00:26.957Z,98211.97
2022-09-17T11:03:38.279Z,98173.19
2022-09-17T11:06:31.209Z,98208.00
2022-09-17T11:09:13.975Z,98176.53
2022-09-17T11:12:18.092Z,98228.06
2022-09-17T11:15:15.806Z,98209.69
2022-09-17T11:18:09.065Z,98215.69
2022-09-17T11:21:18.187Z,98202.69
2022-09-17T11:23:57.929Z,98206.63
2022-09-17T11:27:23.872Z,98227.41
2022-09-17T11:30:17.485Z,98218.47
2022-09-17T11:33:04.556Z,98212.81
2022-09-17T11:36:02.439Z,98195.22
2022-09-17T11:38:43.531Z,98223.19
2022-09-17T11:41:28.356Z,98229.69
2022-09-17T11:44:32.436Z,98231.41
2022-09-17T11:47:17.390Z,98199.25
2022-09-17T11:50:05.603Z,98221.59
2022-09-17T11:53:07.807Z,98192.25
2022-09-17T11:55:53.333Z,98207.84
2022-09-17T11:58:42.551Z,98172.56
2022-09-17T12:01:25.163Z,98195.88
2022-09-17T12:04:30.390Z,98197.66
2022-09-17T12:07:42.259Z,98187.88
2022-09-17T12:10:30.405Z,98186.25
2022-09-17T12:14:00.304Z,98178.34
2022-09-17T12:16:46.586Z,98178.03
2022-09-17T12:19:49.376Z,98185.56
2022-09-17T12:22:36.985Z,98188.19
2022-09-17T12:25:13.291Z,98190.22
2022-09-17T12:27:53.987Z,98126.22
2022-09-17T12:30:32.766Z,98182.63
2022-09-17T12:33:15.302Z,98160.19
2022-09-17T12:36:43.641Z,98176.28
2022-09-17T12:39:38.699Z,98190.78
2022-09-17T12:42:46.046Z,98181.53
2022-09-17T12:45:50.008Z,98189.78
2022-09-17T12:49:19.623Z,98184.22
2022-09-17T12:52:04.226Z,98144.06
2022-09-17T12:54:53.991Z,98187.50
2022-09-17T12:58:09.737Z,98190.97
2022-09-17T13:01:06.755Z,98183.16
2022-09-17T13:04:01.488Z,98185.25
2022-09-17T13:07:04.806Z,98191.06
2022-09-17T13:10:06.533Z,98195.19
2022-09-17T13:13:00.224Z,98200.13
2022-09-17T13:16:15.644Z,98197.47
2022-09-17T13:19:26.750Z,98169.88
2022-09-17T13:22:03.758Z,98200.38
2022-09-17T13:24:36.132Z,98192.94
2022-09-17T13:27:07.201Z,98198.50
2022-09-17T13:29:45.812Z,98201.63
2022-09-17T13:32:33.652Z,98195.22
2022-09-17T13:35:17.623Z,98194.59
2022-09-17T13:38:06.820Z,98200.53
2022-09-17T13:40:37.735Z,98172.31
2022-09-17T13:43:11.277Z,98186.69
2022-09-17T13:46:03.982Z,98195.97
2022-09-17T13:48:35.405Z,98182.38
2022-09-17T13:51:34.916Z,98181.53
2022-09-17T13:54:10.935Z,98175.13
2022-09-17T13:56:47.433Z,98169.34
2022-09-17T13:59:29.463Z,98174.09
2022-09-17T14:02:01.299Z,98183.16
2022-09-17T14:04:34.669Z,98174.72
2022-09-17T14:07:29.025Z,98174.94
2022-09-17T14:10:02.999Z,98168.38
2022-09-17T14:12:47.331Z,98171.66
2022-09-17T14:15:54.963Z,98166.47
2022-09-17T14:18:29.498Z,98157.25
2022-09-17T14:21:17.562Z,98151.25
2022-09-17T14:23:53.250Z,98142.81
2022-09-17T14:26:40.041Z,98152.53
2022-09-17T14:29:30.301Z,98138.94
2022-09-17T14:31:58.717Z,98103.94
2022-09-17T14:34:27.484Z,98096.72
2022-09-17T14:36:56.970Z,98093.81
2022-09-17T14:39:38.360Z,98125.97
2022-09-17T14:42:21.023Z,98131.94
2022-09-17T14:45:00.497Z,98102.88
2022-09-17T14:47:28.616Z,98135.41
2022-09-17T14:50:26.448Z,98101.00
2022-09-17T14:52:55.011Z,98129.44
2022-09-17T14:55:31.486Z,98125.91
2022-09-17T14:58:04.980Z,98108.81
2022-09-17T15:00:39.035Z,98105.66
2022-09-17T15:03:20.929Z,98137.19
2022-09-17T15:05:51.205Z,98140.13
2022-09-17T15:08:23.905Z,98140.13
2022-09-17T15:11:02.422Z,98137.25
2022-09-17T15:13:44.830Z,98119.94
2022-09-17T15:16:30.871Z,98118.94
2022-09-17T15:19:01.812Z,98111.91
2022-09-17T15:21:45.682Z,98134.16
2022-09-17T15:24:35.700Z,98097.41
2022-09-17T15:27:18.860Z,98136.59
2022-09-17T15:29:52.365Z,98129.78
2022-09-17T15:32:21.184Z,98134.91
2022-09-17T15:35:14.088Z,98126.25
2022-09-17T15:40:41.764Z,98123.56
2022-09-17T15:43:35.526Z,98078.03
2022-09-17T15:46:21.945Z,98114.09
2022-09-17T15:48:51.213Z,98082.53
2022-09-17T15:51:35.791Z,98071.22
2022-09-17T15:54:31.618Z,98090.53
2022-09-17T15:57:05.028Z,98091.03
2022-09-17T15:59:35.272Z,98120.28
2022-09-17T16:02:03.553Z,98121.44
2022-09-17T16:04:33.841Z,98113.56
2022-09-17T16:07:24.440Z,98087.09
2022-09-17T16:09:53.737Z,98098.66
2022-09-17T16:12:25.901Z,98100.22
2022-09-17T16:14:57.093Z,98049.22
2022-09-17T16:17:37.531Z,98088.19
2022-09-17T16:20:17.714Z,98087.72
2022-09-17T16:22:48.497Z,98089.94
2022-09-17T16:25:19.131Z,98086.38
2022-09-17T16:27:50.222Z,98083.44
2022-09-17T16:30:24.031Z,98047.88
2022-09-17T16:32:53.927Z,98069.81
2022-09-17T16:35:25.185Z,98117.28
2022-09-17T16:37:56.019Z,98121.47
2022-09-17T16:40:30.338Z,98085.97
2022-09-17T16:43:03.819Z,98111.63
2022-09-17T16:45:32.393Z,98078.16
2022-09-17T16:48:01.129Z,98119.22
2022-09-17T16:50:30.840Z,98117.75
2022-09-17T16:53:04.128Z,98141.91
2022-09-17T16:55:33.328Z,98138.22
2022-09-17T16:58:01.730Z,98138.13
2022-09-17T17:00:30.303Z,98155.19
2022-09-17T17:02:59.625Z,98146.09
2022-09-17T17:05:27.958Z,98122.03
2022-09-17T17:07:57.058Z,98133.59
2022-09-17T17:10:29.723Z,98165.75
2022-09-17T17:12:57.926Z,98171.00
2022-09-17T17:15:26.180Z,98142.75
2022-09-17T17:17:54.359Z,98175.72
2022-09-17T17:20:25.272Z,98181.47
2022-09-17T17:22:53.310Z,98179.78
2022-09-17T17:25:21.454Z,98147.84
2022-09-17T17:27:49.691Z,98188.13
2022-09-17T17:30:18.485Z,98195.75
2022-09-17T17:32:52.989Z,98183.38
2022-09-17T17:35:20.997Z,98168.19
2022-09-17T17:37:49.229Z,98197.13
2022-09-17T17:40:18.043Z,98170.13
2022-09-17T17:42:51.283Z,98204.94
2022-09-17T17:45:19.402Z,98155.31
2022-09-17T17:47:47.497Z,98154.00
2022-09-17T17:50:16.134Z,98193.25
2022-09-17T17:52:48.252Z,98188.59
2022-09-17T17:55:17.162Z,98095.50
2022-09-17T17:57:45.160Z,98201.09
2022-09-17T18:00:14.976Z,98202.09
2022-09-17T18:02:44.576Z,98192.28
2022-09-17T18:05:12.750Z,98190.63
2022-09-17T18:07:41.017Z,98183.84
2022-09-17T18:10:09.670Z,98192.28
2022-09-17T18:12:37.555Z,98143.44
2022-09-17T18:15:07.435Z,98189.34
2022-09-17T18:17:36.485Z,98159.69
2022-09-17T18:20:05.522Z,98168.41
2022-09-17T18:22:33.872Z,98164.28
2022-09-17T18:25:01.825Z,98166.81
2022-09-17T18:27:32.943Z,98152.88
2022-09-17T18:30:02.278Z,98120.84
2022-09-17T18:32:30.684Z,98109.78
2022-09-17T18:34:58.553Z,98113.31
2022-09-17T18:37:29.172Z,98142.94
2022-09-17T18:39:58.858Z,98155.41
2022-09-17T18:42:28.483Z,98116.69
2022-09-17T18:44:56.777Z,98170.41
2022-09-17T18:47:24.759Z,98161.47
2022-09-17T18:49:53.338Z,98119.38
2022-09-17T18:52:22.780Z,98164.94
2022-09-17T18:54:52.258Z,98158.00
2022-09-17T18:57:20.550Z,98159.53
2022-09-17T18:59:48.634Z,98171.94
2022-09-17T19:02:17.829Z,98142.44
2022-09-17T19:04:45.911Z,98121.78
2022-09-17T19:07:14.326Z,98155.06
2022-09-17T19:09:42.464Z,98148.47
2022-09-17T19:12:10.468Z,98147.78
2022-09-17T19:14:38.404Z,98114.88
2022-09-17T19:17:06.597Z,98148.84
2022-09-17T19:19:34.627Z,98153.81
2022-09-17T19:22:03.117Z,98143.03
2022-09-17T19:24:31.188Z,98142.03
2022-09-17T19:27:01.676Z,98142.03
2022-09-17T19:29:29.802Z,98073.03
2022-09-17T19:31:58.214Z,98141.56
2022-09-17T19:34:27.538Z,98143.72
2022-09-17T19:36:55.533Z,98137.44
2022-09-17T19:39:23.829Z,98127.66
2022-09-17T19:41:52.175Z,98093.53
2022-09-17T19:44:20.427Z,98142.56
2022-09-17T19:46:50.125Z,98083.31
2022-09-17T19:49:18.469Z,98140.75
2022-09-17T19:51:46.567Z,98148.72
2022-09-17T19:54:14.760Z,98141.56
2022-09-17T19:56:42.756Z,98114.25
2022-09-17T19:59:11.647Z,98144.38
2022-09-17T20:01:39.982Z,98133.91
2022-09-17T20:04:07.954Z,98145.66
2022-09-17T20:06:36.296Z,98136.56
2022-09-17T20:09:06.233Z,98142.03
2022-09-17T20:11:34.308Z,98141.72
2022-09-17T20:14:06.797Z,98112.56
2022-09-17T20:16:37.728Z,98146.81
2022-09-17T20:19:08.994Z,98155.09
2022-09-17T20:21:36.960Z,98152.94
2022-09-17T20:24:07.279Z,98147.13
2022-09-17T20:26:35.918Z,98159.06
2022-09-17T20:29:04.572Z,98165.69
2022-09-17T20:31:32.706Z,98124.13
2022-09-17T20:34:03.191Z,98162.03
2022-09-17T20:36:35.505Z,98174.44
2022-09-17T20:39:19.464Z,98153.19
2022-09-17T20:41:50.351Z,98169.47
2022-09-17T20:44:18.570Z,98170.94
2022-09-17T20:46:47.034Z,98138.63
2022-09-17T20:49:15.770Z,98158.63
2022-09-17T20:51:43.665Z,98137.59
2022-09-17T20:54:11.975Z,98164.56
2022-09-17T20:56:40.312Z,98153.06
2022-09-17T20:59:18.754Z,98107.25
2022-09-17T21:01:49.957Z,98119.66
2022-09-17T21:04:20.614Z,98135.44
2022-09-17T21:06:53.787Z,98161.41
2022-09-17T21:09:21.812Z,98135.03
2022-09-17T21:11:49.882Z,98155.84
2022-09-17T21:14:18.761Z,98115.66
2022-09-17T21:16:47.027Z,98126.75
2022-09-17T21:19:16.848Z,98158.97
2022-09-17T21:21:45.499Z,98165.44
2022-09-17T21:24:13.477Z,98159.94
2022-09-17T21:26:41.459Z,98115.22
2022-09-17T21:29:09.830Z,98143.81
2022-09-17T21:31:38.602Z,98153.41
2022-09-17T21:34:11.517Z,98157.53
2022-09-17T21:36:43.473Z,98127.03
2022-09-17T21:39:17.741Z,98167.09
2022-09-17T21:41:48.130Z,98138.44
2022-09-17T21:44:17.169Z,98169.22
2022-09-17T21:46:45.378Z,98149.81
2022-09-17T21:49:13.659Z,98127.63
2022-09-17T21:51:43.404Z,98151.16
2022-09-17T21:54:16.028Z,98113.47
2022-09-17T21:56:45.144Z,98145.91
2022-09-17T21:59:15.635Z,98129.38
2022-09-17T22:01:47.194Z,98143.94
2022-09-17T22:04:20.219Z,98134.69
2022-09-17T22:06:50.299Z,98109.84
2022-09-17T22:09:25.512Z,98127.88
2022-09-17T22:11:54.103Z,98095.97
2022-09-17T22:14:24.636Z,98116.47
2022-09-17T22:16:57.158Z,98129.41
2022-09-17T22:19:26.405Z,98123.72
2022-09-17T22:21:56.196Z,98081.56
2022-09-17T22:24:25.448Z,98092.16
2022-09-17T22:26:57.749Z,98117.44
2022-09-17T22:29:28.672Z,98050.22
2022-09-17T22:31:57.426Z,98092.69
2022-09-17T22:34:26.509Z,98090.38
2022-09-17T22:36:54.607Z,98094.22
2022-09-17T22:39:23.713Z,98087.44
2022-09-17T22:41:51.787Z,98067.75
2022-09-17T22:44:21.041Z,98083.09
2022-09-17T22:46:51.796Z,98086.22
2022-09-17T22:49:20.443Z,98073.66
2022-09-17T22:51:50.055Z,98080.91
2022-09-17T22:54:18.641Z,98074.97
2022-09-17T22:56:48.537Z,98071.84
2022-09-17T22:59:18.568Z,98036.94
2022-09-17T23:01:47.019Z,98076.97
2022-09-17T23:04:15.179Z,98062.38
2022-09-17T23:06:43.785Z,98067.50
2022-09-17T23:09:14.072Z,98077.56
2022-09-17T23:11:42.570Z,98040.84
2022-09-17T23:14:13.430Z,98081.69
2022-09-17T23:16:50.512Z,98077.56
2022-09-17T23:19:19.066Z,98087.47
2022-09-17T23:21:47.466Z,98084.31
2022-09-17T23:24:21.809Z,98069.81
2022-09-17T23:26:50.619Z,98032.94
2022-09-17T23:29:18.847Z,98016.88
2022-09-17T23:31:47.952Z,98018.16
2022-09-17T23:34:15.913Z,98069.94
2022-09-17T23:36:43.992Z,98028.91
2022-09-17T23:39:12.588Z,98030.72
2022-09-17T23:41:43.510Z,98064.28
2022-09-17T23:44:15.580Z,98068.41
2022-09-17T23:46:46.239Z,98060.41
2022-09-17T23:49:15.748Z,98025.75
2022-09-17T23:51:46.659Z,98058.03
2022-09-17T23:54:17.919Z,98046.13
2022-09-17T23:56:46.011Z,98053.56
2022-09-17T23:59:13.899Z,98057.06
